createdAt,value
2018-05-29T00:00:38.747Z,54.45
2018-05-29T00:01:38.628Z,54.44
2018-05-29T00:02:38.513Z,54.45
2018-05-29T00:03:38.563Z,54.41
2018-05-29T00:04:38.698Z,54.45
2018-05-29T00:05:38.753Z,54.43
2018-05-29T00:06:38.553Z,54.45
2018-05-29T00:07:38.523Z,54.44
2018-05-29T00:08:40.149Z,54.41
2018-05-29T00:09:38.727Z,54.37
2018-05-29T00:10:38.744Z,54.39
2018-05-29T00:11:38.506Z,54.46
2018-05-29T00:12:38.803Z,54.42
2018-05-29T00:13:38.687Z,54.41
2018-05-29T00:14:38.716Z,54.45
2018-05-29T00:15:38.810Z,54.42
2018-05-29T00:16:38.674Z,54.43
2018-05-29T00:17:38.536Z,54.45
2018-05-29T00:18:38.850Z,54.45
2018-05-29T00:19:38.798Z,54.42
2018-05-29T00:20:38.452Z,54.37
2018-05-29T00:21:38.502Z,54.43
2018-05-29T00:22:38.736Z,54.43
2018-05-29T00:23:38.737Z,54.47
2018-05-29T00:24:38.718Z,54.41
2018-05-29T00:25:38.593Z,54.43
2018-05-29T00:26:38.518Z,54.36
2018-05-29T00:27:38.438Z,54.38
2018-05-29T00:28:38.724Z,54.39
2018-05-29T00:29:38.741Z,54.42
2018-05-29T00:30:38.693Z,54.45
2018-05-29T00:31:38.501Z,54.42
2018-05-29T00:32:38.599Z,54.45
2018-05-29T00:33:38.692Z,54.4
2018-05-29T00:34:38.729Z,54.38
2018-05-29T00:35:38.866Z,54.43
2018-05-29T00:36:38.768Z,54.38
2018-05-29T00:37:38.773Z,54.41
2018-05-29T00:38:38.791Z,54.44
2018-05-29T00:39:38.535Z,54.39
2018-05-29T00:40:38.529Z,54.44
2018-05-29T00:41:38.487Z,54.41
2018-05-29T00:42:38.799Z,54.45
2018-05-29T00:43:38.787Z,54.4
2018-05-29T00:44:38.619Z,54.4
2018-05-29T00:45:38.824Z,54.42
2018-05-29T00:46:38.710Z,54.39
2018-05-29T00:47:38.550Z,54.39
2018-05-29T00:48:38.791Z,54.36
2018-05-29T00:49:38.786Z,54.44
2018-05-29T00:50:38.738Z,54.43
2018-05-29T00:51:39.040Z,54.37
2018-05-29T00:52:38.757Z,54.35
2018-05-29T00:53:38.624Z,54.41
2018-05-29T00:54:38.695Z,54.43
2018-05-29T00:55:39.443Z,54.41
2018-05-29T00:56:38.631Z,54.38
2018-05-29T00:57:38.597Z,54.38
2018-05-29T00:58:41.261Z,54.42
2018-05-29T00:59:38.654Z,54.44
2018-05-29T01:00:38.618Z,54.43
2018-05-29T01:01:38.696Z,54.43
2018-05-29T01:02:38.531Z,54.42
2018-05-29T01:03:38.551Z,54.43
2018-05-29T01:04:38.532Z,54.43
2018-05-29T01:05:38.634Z,54.4
2018-05-29T01:06:38.656Z,54.36
2018-05-29T01:07:38.725Z,54.42
2018-05-29T01:08:38.719Z,54.4
2018-05-29T01:09:38.632Z,54.42
2018-05-29T01:10:38.569Z,54.38
2018-05-29T01:11:38.629Z,54.41
2018-05-29T01:12:38.816Z,54.42
2018-05-29T01:13:38.805Z,54.45
2018-05-29T01:14:38.617Z,54.37
2018-05-29T01:15:38.653Z,54.44
2018-05-29T01:16:38.665Z,54.45
2018-05-29T01:17:38.530Z,54.42
2018-05-29T01:18:38.756Z,54.37
2018-05-29T01:19:38.702Z,54.43
2018-05-29T01:20:38.613Z,54.38
2018-05-29T01:21:38.552Z,54.44
2018-05-29T01:22:38.634Z,54.44
2018-05-29T01:23:38.856Z,54.38
2018-05-29T01:24:38.643Z,54.45
2018-05-29T01:25:38.676Z,54.4
2018-05-29T01:26:38.759Z,54.44
2018-05-29T01:27:38.790Z,54.36
2018-05-29T01:28:38.786Z,54.41
2018-05-29T01:29:38.724Z,54.37
2018-05-29T01:30:38.790Z,54.4
2018-05-29T01:31:38.487Z,54.38
2018-05-29T01:32:38.609Z,54.38
2018-05-29T01:33:38.330Z,54.42
2018-05-29T01:34:38.641Z,54.41
2018-05-29T01:35:38.698Z,54.39
2018-05-29T01:36:38.506Z,54.38
2018-05-29T01:37:38.508Z,54.44
2018-05-29T01:38:38.584Z,54.4
2018-05-29T01:39:38.541Z,54.35
2018-05-29T01:40:38.548Z,54.43
2018-05-29T01:41:38.894Z,54.4
2018-05-29T01:42:38.693Z,54.36
2018-05-29T01:43:38.812Z,54.44
2018-05-29T01:44:38.586Z,54.36
2018-05-29T01:45:38.779Z,54.36
2018-05-29T01:46:38.478Z,54.4
2018-05-29T01:47:38.542Z,54.38
2018-05-29T01:48:38.809Z,54.33
2018-05-29T01:49:38.571Z,54.4
2018-05-29T01:50:38.851Z,54.38
2018-05-29T01:51:38.672Z,54.31
2018-05-29T01:52:38.647Z,54.42
2018-05-29T01:53:38.698Z,54.39
2018-05-29T01:54:38.442Z,54.38
2018-05-29T01:55:38.592Z,54.37
2018-05-29T01:56:38.526Z,54.42
2018-05-29T01:57:38.712Z,54.41
2018-05-29T01:58:38.376Z,54.36
2018-05-29T01:59:38.528Z,54.4
2018-05-29T02:00:38.502Z,54.38
2018-05-29T02:01:38.684Z,54.39
2018-05-29T02:02:38.450Z,54.37
2018-05-29T02:03:38.893Z,54.38
2018-05-29T02:04:38.998Z,54.33
2018-05-29T02:05:38.698Z,54.35
2018-05-29T02:06:38.729Z,54.35
2018-05-29T02:07:38.605Z,54.35
2018-05-29T02:08:38.729Z,54.37
2018-05-29T02:09:38.737Z,54.41
2018-05-29T02:10:38.377Z,54.43
2018-05-29T02:11:38.602Z,54.42
2018-05-29T02:12:38.491Z,54.41
2018-05-29T02:13:38.617Z,54.37
2018-05-29T02:14:38.674Z,54.39
2018-05-29T02:15:38.638Z,54.3
2018-05-29T02:16:38.488Z,54.37
2018-05-29T02:17:38.711Z,54.35
2018-05-29T02:18:38.603Z,54.37
2018-05-29T02:19:38.460Z,54.34
2018-05-29T02:20:38.433Z,54.39
2018-05-29T02:21:38.662Z,54.42
2018-05-29T02:22:38.488Z,54.35
2018-05-29T02:23:38.376Z,54.36
2018-05-29T02:24:38.502Z,54.42
2018-05-29T02:25:38.633Z,54.38
2018-05-29T02:26:38.616Z,54.35
2018-05-29T02:27:38.491Z,54.39
2018-05-29T02:28:38.610Z,54.39
2018-05-29T02:29:38.523Z,54.32
2018-05-29T02:30:38.552Z,54.33
2018-05-29T02:31:38.699Z,54.42
2018-05-29T02:32:38.451Z,54.38
2018-05-29T02:33:38.582Z,54.37
2018-05-29T02:34:38.705Z,54.34
2018-05-29T02:35:38.641Z,54.37
2018-05-29T02:36:38.527Z,54.36
2018-05-29T02:37:38.713Z,54.38
2018-05-29T02:38:38.490Z,54.34
2018-05-29T02:39:38.755Z,54.4
2018-05-29T02:40:38.560Z,54.37
2018-05-29T02:41:38.489Z,54.35
2018-05-29T02:42:38.673Z,54.36
2018-05-29T02:43:38.601Z,54.33
2018-05-29T02:44:38.632Z,54.39
2018-05-29T02:45:38.578Z,54.37
2018-05-29T02:46:38.488Z,54.42
2018-05-29T02:47:38.577Z,54.37
2018-05-29T02:48:38.601Z,54.44
2018-05-29T02:49:38.370Z,54.43
2018-05-29T02:50:38.618Z,54.36
2018-05-29T02:51:38.432Z,54.43
2018-05-29T02:52:38.505Z,54.39
2018-05-29T02:53:38.572Z,54.35
2018-05-29T02:54:38.669Z,54.42
2018-05-29T02:55:38.791Z,54.41
2018-05-29T02:56:38.595Z,54.39
2018-05-29T02:57:38.605Z,54.42
2018-05-29T02:58:38.838Z,54.38
2018-05-29T02:59:38.675Z,54.4
2018-05-29T03:00:39.209Z,54.37
2018-05-29T03:01:38.533Z,54.36
2018-05-29T03:02:38.702Z,54.41
2018-05-29T03:03:38.503Z,54.38
2018-05-29T03:04:38.592Z,54.35
2018-05-29T03:05:38.788Z,54.31
2018-05-29T03:06:38.607Z,54.36
2018-05-29T03:07:39.350Z,54.37
2018-05-29T03:08:40.460Z,54.36
2018-05-29T03:09:38.666Z,54.32
2018-05-29T03:10:38.641Z,54.38
2018-05-29T03:11:38.509Z,54.3
2018-05-29T03:12:38.564Z,54.36
2018-05-29T03:13:38.558Z,54.35
2018-05-29T03:14:38.752Z,54.42
2018-05-29T03:15:38.519Z,54.34
2018-05-29T03:16:38.556Z,54.41
2018-05-29T03:17:38.766Z,54.36
2018-05-29T03:18:38.695Z,54.37
2018-05-29T03:19:38.451Z,54.34
2018-05-29T03:20:38.618Z,54.35
2018-05-29T03:21:38.609Z,54.36
2018-05-29T03:22:38.542Z,54.4
2018-05-29T03:23:38.517Z,54.37
2018-05-29T03:24:38.729Z,54.36
2018-05-29T03:25:38.521Z,54.38
2018-05-29T03:26:38.600Z,54.34
2018-05-29T03:27:38.533Z,54.33
2018-05-29T03:28:38.612Z,54.36
2018-05-29T03:29:38.437Z,54.32
2018-05-29T03:30:38.406Z,54.35
2018-05-29T03:31:38.430Z,54.33
2018-05-29T03:32:38.319Z,54.33
2018-05-29T03:33:38.471Z,54.33
2018-05-29T03:34:38.291Z,54.35
2018-05-29T03:35:38.395Z,54.36
2018-05-29T03:36:38.438Z,54.34
2018-05-29T03:37:38.583Z,54.34
2018-05-29T03:38:38.294Z,54.38
2018-05-29T03:39:38.395Z,54.36
2018-05-29T03:40:38.430Z,54.37
2018-05-29T03:41:38.341Z,54.31
2018-05-29T03:42:38.436Z,54.3
2018-05-29T03:43:38.435Z,54.33
2018-05-29T03:44:38.300Z,54.34
2018-05-29T03:45:38.363Z,54.34
2018-05-29T03:46:38.580Z,54.32
2018-05-29T03:47:38.494Z,54.33
2018-05-29T03:48:38.383Z,54.34
2018-05-29T03:49:38.308Z,54.31
2018-05-29T03:50:38.324Z,54.26
2018-05-29T03:51:38.443Z,54.3
2018-05-29T03:52:38.508Z,54.24
2018-05-29T03:53:38.511Z,54.36
2018-05-29T03:54:38.192Z,54.31
2018-05-29T03:55:38.187Z,54.32
2018-05-29T03:56:38.514Z,54.27
2018-05-29T03:57:38.547Z,54.29
2018-05-29T03:58:38.368Z,54.27
2018-05-29T03:59:38.458Z,54.26
2018-05-29T04:00:38.327Z,54.3
2018-05-29T04:01:38.227Z,54.3
2018-05-29T04:02:38.530Z,54.3
2018-05-29T04:03:38.498Z,54.28
2018-05-29T04:04:38.363Z,54.32
2018-05-29T04:05:38.526Z,54.27
2018-05-29T04:06:38.363Z,54.33
2018-05-29T04:07:38.421Z,54.34
2018-05-29T04:08:38.363Z,54.27
2018-05-29T04:09:38.530Z,54.26
2018-05-29T04:10:38.348Z,54.29
2018-05-29T04:11:38.375Z,54.28
2018-05-29T04:12:38.362Z,54.27
2018-05-29T04:13:38.438Z,54.27
2018-05-29T04:14:38.420Z,54.26
2018-05-29T04:15:38.676Z,54.27
2018-05-29T04:16:38.337Z,54.27
2018-05-29T04:17:38.376Z,54.28
2018-05-29T04:18:38.370Z,54.3
2018-05-29T04:19:38.516Z,54.25
2018-05-29T04:20:38.334Z,54.25
2018-05-29T04:21:38.473Z,54.26
2018-05-29T04:22:38.542Z,54.25
2018-05-29T04:23:38.364Z,54.29
2018-05-29T04:24:38.501Z,54.23
2018-05-29T04:25:38.500Z,54.24
2018-05-29T04:26:38.272Z,54.25
2018-05-29T04:27:38.266Z,54.2
2018-05-29T04:28:38.373Z,54.26
2018-05-29T04:29:38.419Z,54.23
2018-05-29T04:30:38.263Z,54.3
2018-05-29T04:31:38.213Z,54.25
2018-05-29T04:32:38.379Z,54.24
2018-05-29T04:33:38.373Z,54.24
2018-05-29T04:34:38.189Z,54.24
2018-05-29T04:35:38.323Z,54.28
2018-05-29T04:36:38.316Z,54.24
2018-05-29T04:37:38.453Z,54.23
2018-05-29T04:38:38.463Z,54.27
2018-05-29T04:39:38.432Z,54.21
2018-05-29T04:40:38.482Z,54.22
2018-05-29T04:41:38.462Z,54.23
2018-05-29T04:42:38.339Z,54.23
2018-05-29T04:43:38.352Z,54.29
2018-05-29T04:44:38.384Z,54.27
2018-05-29T04:45:38.420Z,54.25
2018-05-29T04:46:38.232Z,54.27
2018-05-29T04:47:38.231Z,54.24
2018-05-29T04:48:38.285Z,54.18
2018-05-29T04:49:38.343Z,54.22
2018-05-29T04:50:38.385Z,54.23
2018-05-29T04:51:38.456Z,54.17
2018-05-29T04:52:38.258Z,54.23
2018-05-29T04:53:38.415Z,54.2
2018-05-29T04:54:38.449Z,54.23
2018-05-29T04:55:38.447Z,54.28
2018-05-29T04:56:38.593Z,54.24
2018-05-29T04:57:38.449Z,54.26
2018-05-29T04:58:38.318Z,54.23
2018-05-29T04:59:38.460Z,54.19
2018-05-29T05:00:38.424Z,54.22
2018-05-29T05:01:38.223Z,54.18
2018-05-29T05:02:38.526Z,54.21
2018-05-29T05:03:38.351Z,54.23
2018-05-29T05:04:38.196Z,54.23
2018-05-29T05:05:38.363Z,54.2
2018-05-29T05:06:38.206Z,54.19
2018-05-29T05:07:38.351Z,54.22
2018-05-29T05:08:38.310Z,54.21
2018-05-29T05:09:38.335Z,54.22
2018-05-29T05:10:38.342Z,54.19
2018-05-29T05:11:38.245Z,54.21
2018-05-29T05:12:38.367Z,54.24
2018-05-29T05:13:38.220Z,54.16
2018-05-29T05:14:38.398Z,54.21
2018-05-29T05:15:38.567Z,54.19
2018-05-29T05:16:38.414Z,54.19
2018-05-29T05:17:38.450Z,54.16
2018-05-29T05:18:38.681Z,54.19
2018-05-29T05:19:38.249Z,54.19
2018-05-29T05:20:38.376Z,54.16
2018-05-29T05:21:38.414Z,54.2
2018-05-29T05:22:38.637Z,54.13
2018-05-29T05:23:38.498Z,54.19
2018-05-29T05:24:38.412Z,54.17
2018-05-29T05:25:38.271Z,54.21
2018-05-29T05:26:38.306Z,54.22
2018-05-29T05:27:38.321Z,54.18
2018-05-29T05:28:38.286Z,54.22
2018-05-29T05:29:38.363Z,54.17
2018-05-29T05:30:38.307Z,54.11
2018-05-29T05:31:38.317Z,54.14
2018-05-29T05:32:38.330Z,54.15
2018-05-29T05:33:38.208Z,54.15
2018-05-29T05:34:38.527Z,54.2
2018-05-29T05:35:38.202Z,54.18
2018-05-29T05:36:38.309Z,54.2
2018-05-29T05:37:38.475Z,54.22
2018-05-29T05:38:38.474Z,54.17
2018-05-29T05:39:38.315Z,54.2
2018-05-29T05:40:38.383Z,54.19
2018-05-29T05:41:38.308Z,54.18
2018-05-29T05:42:38.573Z,54.13
2018-05-29T05:43:38.268Z,54.19
2018-05-29T05:44:38.430Z,54.18
2018-05-29T05:45:38.337Z,54.14
2018-05-29T05:46:38.269Z,54.17
2018-05-29T05:47:38.291Z,54.17
2018-05-29T05:48:38.348Z,54.12
2018-05-29T05:49:38.375Z,54.15
2018-05-29T05:50:38.297Z,54.09
2018-05-29T05:51:38.361Z,54.15
2018-05-29T05:52:38.273Z,54.18
2018-05-29T05:53:38.305Z,54.24
2018-05-29T05:54:38.427Z,54.16
2018-05-29T05:55:38.427Z,54.1
2018-05-29T05:56:38.290Z,54.14
2018-05-29T05:57:38.313Z,54.18
2018-05-29T05:58:38.435Z,54.18
2018-05-29T05:59:38.291Z,54.16
2018-05-29T06:00:38.323Z,54.21
2018-05-29T06:01:38.370Z,54.21
2018-05-29T06:02:38.438Z,54.15
2018-05-29T06:03:38.445Z,54.13
2018-05-29T06:04:38.233Z,54.12
2018-05-29T06:05:38.431Z,54.15
2018-05-29T06:06:38.372Z,54.18
2018-05-29T06:07:38.264Z,54.13
2018-05-29T06:08:38.289Z,54.11
2018-05-29T06:09:38.334Z,54.09
2018-05-29T06:10:38.472Z,54.14
2018-05-29T06:11:38.417Z,54.19
2018-05-29T06:12:38.444Z,54.17
2018-05-29T06:13:38.549Z,54.16
2018-05-29T06:14:38.343Z,54.12
2018-05-29T06:15:38.229Z,54.12
2018-05-29T06:16:38.366Z,54.12
2018-05-29T06:17:38.556Z,54.13
2018-05-29T06:18:38.406Z,54.15
2018-05-29T06:19:38.403Z,54.18
2018-05-29T06:20:38.226Z,54.09
2018-05-29T06:21:38.366Z,54.17
2018-05-29T06:22:38.204Z,54.18
2018-05-29T06:23:38.378Z,54.1
2018-05-29T06:24:38.225Z,54.41
2018-05-29T06:25:38.355Z,54.25
2018-05-29T06:26:38.250Z,54.36
2018-05-29T06:27:38.487Z,54.32
2018-05-29T06:28:38.317Z,54.38
2018-05-29T06:29:38.370Z,54.28
2018-05-29T06:30:38.318Z,54.61
2018-05-29T06:31:38.185Z,54.41
2018-05-29T06:32:38.322Z,54.21
2018-05-29T06:33:38.344Z,54.35
2018-05-29T06:34:38.378Z,54.36
2018-05-29T06:35:38.417Z,54.4
2018-05-29T06:36:38.365Z,54.38
2018-05-29T06:37:38.289Z,54.32
2018-05-29T06:38:38.252Z,54.28
2018-05-29T06:39:38.253Z,54.32
2018-05-29T06:40:38.207Z,54.33
2018-05-29T06:41:38.239Z,54.34
2018-05-29T06:42:38.434Z,54.35
2018-05-29T06:43:38.208Z,54.43
2018-05-29T06:44:38.393Z,54.32
2018-05-29T06:45:38.417Z,54.36
2018-05-29T06:46:38.408Z,54.34
2018-05-29T06:47:38.316Z,54.33
2018-05-29T06:48:38.453Z,54.36
2018-05-29T06:49:38.208Z,54.37
2018-05-29T06:50:38.495Z,54.4
2018-05-29T06:51:38.263Z,54.29
2018-05-29T06:52:38.388Z,54.41
2018-05-29T06:53:38.589Z,54.39
2018-05-29T06:54:38.386Z,54.34
2018-05-29T06:55:38.258Z,54.31
2018-05-29T06:56:38.280Z,54.38
2018-05-29T06:57:38.477Z,54.37
2018-05-29T06:58:38.345Z,54.38
2018-05-29T06:59:38.332Z,54.33
2018-05-29T07:00:38.437Z,54.35
2018-05-29T07:01:38.286Z,54.37
2018-05-29T07:02:38.269Z,54.39
2018-05-29T07:03:38.389Z,54.39
2018-05-29T07:04:38.258Z,54.35
2018-05-29T07:05:38.361Z,54.43
2018-05-29T07:06:38.410Z,54.37
2018-05-29T07:07:38.227Z,54.29
2018-05-29T07:08:38.284Z,54.38
2018-05-29T07:09:38.299Z,54.28
2018-05-29T07:10:38.404Z,54.31
2018-05-29T07:11:38.240Z,54.31
2018-05-29T07:12:38.237Z,54.29
2018-05-29T07:13:38.393Z,54.31
2018-05-29T07:14:38.396Z,54.33
2018-05-29T07:15:38.332Z,54.26
2018-05-29T07:16:38.220Z,54.3
2018-05-29T07:17:38.209Z,54.29
2018-05-29T07:18:38.265Z,54.31
2018-05-29T07:19:38.403Z,54.4
2018-05-29T07:20:38.326Z,54.31
2018-05-29T07:21:38.385Z,54.32
2018-05-29T07:22:38.394Z,54.34
2018-05-29T07:23:38.516Z,54.32
2018-05-29T07:24:38.395Z,54.35
2018-05-29T07:25:38.304Z,54.28
2018-05-29T07:26:38.627Z,54.3
2018-05-29T07:27:38.277Z,54.34
2018-05-29T07:28:38.328Z,54.3
2018-05-29T07:29:38.364Z,54.3
2018-05-29T07:30:38.438Z,54.34
2018-05-29T07:31:38.183Z,54.29
2018-05-29T07:32:38.249Z,54.29
2018-05-29T07:33:38.234Z,54.39
2018-05-29T07:34:38.304Z,54.31
2018-05-29T07:35:38.363Z,54.35
2018-05-29T07:36:38.212Z,54.29
2018-05-29T07:37:38.203Z,54.29
2018-05-29T07:38:38.227Z,54.25
2018-05-29T07:40:02.683Z,54.29
2018-05-29T07:40:38.330Z,54.28
2018-05-29T07:41:38.595Z,54.27
2018-05-29T07:42:38.390Z,54.32
2018-05-29T07:43:38.498Z,54.32
2018-05-29T07:44:38.246Z,54.27
2018-05-29T07:45:38.357Z,54.27
2018-05-29T07:46:38.434Z,54.3
2018-05-29T07:47:38.194Z,54.27
2018-05-29T07:48:38.346Z,54.28
2018-05-29T07:49:38.249Z,54.3
2018-05-29T07:50:38.535Z,54.27
2018-05-29T07:51:38.258Z,54.27
2018-05-29T07:52:38.281Z,54.26
2018-05-29T07:53:38.412Z,54.27
2018-05-29T07:54:38.255Z,54.27
2018-05-29T07:55:38.307Z,54.25
2018-05-29T07:56:38.438Z,54.32
2018-05-29T07:57:38.173Z,54.22
2018-05-29T07:58:38.241Z,54.22
2018-05-29T07:59:38.271Z,54.29
2018-05-29T08:00:38.320Z,54.23
2018-05-29T08:01:38.237Z,54.27
2018-05-29T08:02:38.467Z,54.32
2018-05-29T08:03:38.346Z,54.29
2018-05-29T08:04:38.426Z,54.27
2018-05-29T08:05:38.246Z,54.29
2018-05-29T08:06:38.393Z,54.28
2018-05-29T08:07:38.314Z,54.22
2018-05-29T08:08:38.299Z,54.25
2018-05-29T08:09:38.272Z,54.3
2018-05-29T08:10:38.501Z,54.23
2018-05-29T08:11:38.294Z,54.17
2018-05-29T08:12:38.317Z,54.19
2018-05-29T08:13:38.370Z,54.23
2018-05-29T08:14:38.339Z,54.26
2018-05-29T08:15:38.317Z,54.23
2018-05-29T08:16:38.357Z,54.2
2018-05-29T08:17:38.564Z,54.19
2018-05-29T08:18:38.381Z,54.28
2018-05-29T08:19:38.290Z,54.29
2018-05-29T08:20:38.296Z,54.21
2018-05-29T08:21:38.254Z,54.16
2018-05-29T08:22:38.292Z,54.26
2018-05-29T08:23:38.222Z,54.26
2018-05-29T08:24:38.393Z,54.3
2018-05-29T08:25:38.165Z,54.21
2018-05-29T08:26:38.344Z,54.26
2018-05-29T08:27:38.320Z,54.23
2018-05-29T08:28:38.314Z,54.19
2018-05-29T08:29:38.247Z,54.21
2018-05-29T08:30:38.214Z,54.24
2018-05-29T08:31:38.289Z,54.19
2018-05-29T08:32:38.224Z,54.16
2018-05-29T08:33:38.256Z,54.16
2018-05-29T08:34:38.305Z,54.21
2018-05-29T08:35:38.289Z,54.18
2018-05-29T08:36:38.330Z,54.23
2018-05-29T08:37:38.469Z,54.14
2018-05-29T08:38:38.176Z,54.15
2018-05-29T08:39:38.547Z,54.16
2018-05-29T08:40:38.216Z,54.16
2018-05-29T08:41:38.332Z,54.18
2018-05-29T08:42:38.351Z,54.24
2018-05-29T08:43:38.303Z,54.22
2018-05-29T08:44:38.274Z,54.22
2018-05-29T08:45:38.399Z,54.27
2018-05-29T08:46:38.394Z,54.16
2018-05-29T08:47:38.268Z,54.24
2018-05-29T08:48:38.351Z,54.18
2018-05-29T08:49:38.408Z,54.23
2018-05-29T08:50:38.270Z,54.16
2018-05-29T08:51:38.414Z,54.19
2018-05-29T08:52:38.271Z,54.21
2018-05-29T08:53:38.302Z,54.21
2018-05-29T08:54:38.365Z,54.19
2018-05-29T08:55:38.374Z,54.22
2018-05-29T08:56:38.299Z,54.17
2018-05-29T08:57:38.156Z,54.24
2018-05-29T08:58:38.247Z,54.16
2018-05-29T08:59:38.269Z,54.24
2018-05-29T09:00:38.297Z,54.13
2018-05-29T09:01:38.383Z,54.24
2018-05-29T09:02:38.170Z,54.2
2018-05-29T09:03:38.374Z,54.21
2018-05-29T09:04:38.302Z,54.15
2018-05-29T09:05:38.236Z,54.19
2018-05-29T09:06:38.343Z,54.23
2018-05-29T09:07:38.486Z,54.23
2018-05-29T09:08:38.203Z,54.22
2018-05-29T09:09:38.420Z,54.18
2018-05-29T09:10:38.161Z,54.21
2018-05-29T09:11:38.119Z,54.2
2018-05-29T09:12:38.271Z,54.25
2018-05-29T09:13:38.213Z,54.17
2018-05-29T09:14:38.216Z,54.17
2018-05-29T09:15:38.446Z,54.19
2018-05-29T09:16:38.317Z,54.15
2018-05-29T09:17:38.294Z,54.17
2018-05-29T09:18:38.267Z,54.26
2018-05-29T09:19:38.188Z,54.18
2018-05-29T09:20:38.307Z,54.19
2018-05-29T09:21:38.334Z,54.13
2018-05-29T09:22:38.329Z,54.2
2018-05-29T09:23:38.251Z,54.24
2018-05-29T09:24:38.315Z,54.17
2018-05-29T09:25:38.386Z,54.2
2018-05-29T09:26:38.220Z,54.14
2018-05-29T09:27:38.195Z,54.18
2018-05-29T09:28:38.219Z,54.22
2018-05-29T09:29:38.373Z,54.22
2018-05-29T09:30:38.327Z,54.18
2018-05-29T09:31:38.347Z,54.21
2018-05-29T09:32:38.219Z,54.15
2018-05-29T09:33:38.209Z,54.14
2018-05-29T09:34:38.364Z,54.13
2018-05-29T09:35:38.232Z,54.15
2018-05-29T09:36:38.365Z,54.18
2018-05-29T09:37:38.185Z,54.19
2018-05-29T09:38:38.488Z,54.14
2018-05-29T09:39:38.342Z,54.15
2018-05-29T09:40:38.249Z,54.14
2018-05-29T09:41:38.120Z,54.17
2018-05-29T09:42:38.209Z,54.15
2018-05-29T09:43:38.188Z,54.14
2018-05-29T09:44:38.406Z,54.22
2018-05-29T09:45:38.298Z,54.21
2018-05-29T09:46:38.205Z,54.2
2018-05-29T09:47:38.268Z,54.2
2018-05-29T09:48:38.490Z,54.17
2018-05-29T09:49:38.309Z,54.19
2018-05-29T09:50:38.168Z,54.11
2018-05-29T09:51:38.368Z,54.17
2018-05-29T09:52:38.354Z,54.15
2018-05-29T09:53:38.600Z,54.14
2018-05-29T09:54:38.287Z,54.17
2018-05-29T09:55:38.501Z,54.14
2018-05-29T09:56:38.509Z,54.15
2018-05-29T09:57:38.308Z,54.14
2018-05-29T09:58:38.281Z,54.18
2018-05-29T09:59:38.209Z,54.08
2018-05-29T10:00:38.481Z,54.13
2018-05-29T10:01:38.392Z,54.1
2018-05-29T10:02:38.221Z,54.17
2018-05-29T10:03:38.375Z,54.16
2018-05-29T10:04:38.248Z,54.16
2018-05-29T10:05:38.318Z,54.18
2018-05-29T10:06:38.353Z,54.12
2018-05-29T10:07:38.214Z,54.19
2018-05-29T10:08:38.219Z,54.17
2018-05-29T10:09:38.287Z,54.15
2018-05-29T10:10:38.313Z,54.12
2018-05-29T10:11:38.418Z,54.17
2018-05-29T10:12:38.203Z,54.14
2018-05-29T10:13:38.341Z,54.1
2018-05-29T10:14:38.213Z,54.12
2018-05-29T10:15:38.148Z,54.15
2018-05-29T10:16:38.396Z,54.1
2018-05-29T10:17:38.290Z,54.12
2018-05-29T10:18:38.186Z,54.09
2018-05-29T10:19:38.285Z,54.14
2018-05-29T10:20:38.316Z,54.12
2018-05-29T10:21:38.382Z,54.16
2018-05-29T10:22:38.229Z,54.18
2018-05-29T10:23:38.367Z,54.14
2018-05-29T10:24:38.349Z,54.12
2018-05-29T10:25:38.249Z,54.15
2018-05-29T10:26:38.240Z,54.12
2018-05-29T10:27:38.264Z,54.14
2018-05-29T10:28:38.273Z,54.14
2018-05-29T10:29:38.183Z,54.15
2018-05-29T10:30:38.146Z,54.1
2018-05-29T10:31:38.459Z,54.05
2018-05-29T10:32:38.216Z,54.18
2018-05-29T10:33:38.204Z,54.18
2018-05-29T10:34:38.352Z,54.13
2018-05-29T10:35:38.237Z,54.11
2018-05-29T10:36:38.189Z,54.07
2018-05-29T10:37:38.191Z,54.09
2018-05-29T10:38:38.230Z,54.14
2018-05-29T10:39:38.285Z,54.07
2018-05-29T10:40:38.179Z,54.12
2018-05-29T10:41:38.224Z,54.12
2018-05-29T10:42:38.351Z,54.1
2018-05-29T10:43:38.294Z,54.11
2018-05-29T10:44:38.114Z,54.11
2018-05-29T10:45:38.323Z,54.17
2018-05-29T10:46:38.334Z,54.09
2018-05-29T10:47:38.271Z,54.11
2018-05-29T10:48:38.314Z,54.1
2018-05-29T10:49:38.248Z,54.12
2018-05-29T10:50:38.226Z,54.16
2018-05-29T10:51:38.362Z,54.13
2018-05-29T10:52:38.145Z,54.13
2018-05-29T10:53:38.180Z,54.21
2018-05-29T10:54:38.352Z,54.11
2018-05-29T10:55:38.386Z,54.11
2018-05-29T10:56:38.244Z,54.08
2018-05-29T10:57:38.447Z,54.09
2018-05-29T10:58:38.052Z,54.18
2018-05-29T10:59:38.199Z,54.09
2018-05-29T11:00:38.247Z,54.12
2018-05-29T11:01:38.226Z,54.14
2018-05-29T11:02:38.241Z,54.17
2018-05-29T11:03:38.267Z,54.15
2018-05-29T11:04:38.113Z,54.13
2018-05-29T11:05:38.331Z,54.1
2018-05-29T11:06:38.213Z,54.12
2018-05-29T11:07:38.284Z,54.17
2018-05-29T11:08:38.284Z,54.09
2018-05-29T11:09:38.337Z,54.06
2018-05-29T11:10:38.201Z,54.12
2018-05-29T11:11:38.183Z,54.09
2018-05-29T11:12:38.127Z,54.09
2018-05-29T11:13:38.322Z,54.14
2018-05-29T11:14:38.347Z,54.07
2018-05-29T11:15:38.260Z,54.08
2018-05-29T11:16:38.345Z,54.15
2018-05-29T11:17:38.256Z,54.16
2018-05-29T11:18:38.225Z,54.18
2018-05-29T11:19:38.341Z,54.14
2018-05-29T11:20:38.127Z,54.07
2018-05-29T11:21:38.198Z,54.14
2018-05-29T11:22:38.231Z,54.02
2018-05-29T11:23:38.436Z,54.15
2018-05-29T11:24:38.365Z,54.13
2018-05-29T11:25:38.382Z,54.17
2018-05-29T11:26:38.309Z,54.06
2018-05-29T11:27:38.139Z,54.16
2018-05-29T11:28:38.225Z,54.1
2018-05-29T11:29:38.248Z,54.11
2018-05-29T11:30:38.290Z,54.19
2018-05-29T11:31:38.281Z,54.13
2018-05-29T11:32:38.252Z,54.08
2018-05-29T11:33:38.326Z,54.14
2018-05-29T11:34:38.159Z,54.13
2018-05-29T11:35:38.244Z,54.08
2018-05-29T11:36:38.378Z,54.11
2018-05-29T11:37:38.100Z,54.14
2018-05-29T11:38:38.248Z,54.11
2018-05-29T11:39:38.261Z,54.1
2018-05-29T11:40:38.585Z,54.09
2018-05-29T11:41:38.133Z,54.13
2018-05-29T11:42:38.327Z,54.08
2018-05-29T11:43:38.160Z,54.06
2018-05-29T11:44:38.239Z,54.11
2018-05-29T11:45:38.327Z,54.1
2018-05-29T11:46:38.221Z,54.09
2018-05-29T11:47:38.168Z,54.1
2018-05-29T11:48:38.546Z,54.04
2018-05-29T11:49:38.190Z,54.08
2018-05-29T11:50:38.340Z,54.08
2018-05-29T11:51:38.134Z,54.08
2018-05-29T11:52:38.088Z,54.08
2018-05-29T11:53:38.270Z,54.1
2018-05-29T11:54:38.353Z,54.11
2018-05-29T11:55:38.222Z,54.16
2018-05-29T11:56:38.119Z,54.08
2018-05-29T11:57:38.308Z,54.08
2018-05-29T11:58:38.323Z,54.1
2018-05-29T11:59:38.172Z,54.07
2018-05-29T12:00:38.344Z,54.07
2018-05-29T12:01:38.159Z,54.08
2018-05-29T12:02:38.181Z,54.1
2018-05-29T12:03:38.192Z,54.13
2018-05-29T12:04:38.282Z,54.12
2018-05-29T12:05:38.364Z,54.07
2018-05-29T12:06:38.351Z,54.11
2018-05-29T12:07:38.511Z,54.05
2018-05-29T12:08:38.208Z,54.11
2018-05-29T12:09:38.301Z,54.02
2018-05-29T12:10:38.333Z,54.11
2018-05-29T12:11:38.265Z,54.09
2018-05-29T12:12:38.333Z,54.04
2018-05-29T12:13:38.460Z,54.06
2018-05-29T12:14:38.267Z,54.07
2018-05-29T12:15:38.191Z,54.13
2018-05-29T12:16:38.325Z,54.05
2018-05-29T12:17:38.163Z,54.13
2018-05-29T12:18:38.134Z,54.07
2018-05-29T12:19:38.384Z,54.1
2018-05-29T12:20:38.215Z,54.09
2018-05-29T12:21:38.430Z,54.03
2018-05-29T12:22:38.142Z,54.11
2018-05-29T12:23:38.076Z,54.07
2018-05-29T12:24:38.304Z,54.07
2018-05-29T12:25:38.132Z,54.07
2018-05-29T12:26:38.254Z,54.04
2018-05-29T12:27:38.190Z,54.08
2018-05-29T12:28:38.064Z,54.05
2018-05-29T12:29:38.212Z,54.1
2018-05-29T12:30:38.306Z,54.07
2018-05-29T12:31:38.307Z,54.07
2018-05-29T12:32:38.382Z,54.03
2018-05-29T12:33:38.343Z,54.01
2018-05-29T12:34:38.363Z,54.08
2018-05-29T12:35:38.253Z,54.04
2018-05-29T12:36:38.495Z,54.05
2018-05-29T12:37:38.340Z,54.06
2018-05-29T12:38:38.206Z,54.07
2018-05-29T12:39:38.223Z,54.11
2018-05-29T12:40:38.184Z,54.05
2018-05-29T12:41:38.266Z,54.04
2018-05-29T12:42:38.298Z,54.04
2018-05-29T12:43:38.221Z,54.08
2018-05-29T12:44:38.093Z,54.05
2018-05-29T12:45:38.270Z,54.05
2018-05-29T12:46:38.204Z,54.03
2018-05-29T12:47:38.329Z,54.03
2018-05-29T12:48:38.259Z,53.95
2018-05-29T12:49:38.263Z,54.04
2018-05-29T12:50:38.146Z,54.05
2018-05-29T12:51:38.156Z,54.02
2018-05-29T12:52:38.349Z,54.05
2018-05-29T12:53:38.318Z,54
2018-05-29T12:54:38.193Z,53.99